sensor_id;sensor_type;location;lat;lon;timestamp;temperature;humidity
39099;DHT22;24844;52.380;7.018;2023-09-19T00:02:16;15.60;99.90
39099;DHT22;24844;52.380;7.018;2023-09-19T00:04:43;15.90;99.90
39099;DHT22;24844;52.380;7.018;2023-09-19T00:07:08;15.70;99.90
39099;DHT22;24844;52.380;7.018;2023-09-19T00:09:34;15.80;99.90
39099;DHT22;24844;52.380;7.018;2023-09-19T00:12:06;15.70;99.90
39099;DHT22;24844;52.380;7.018;2023-09-19T00:14:32;15.70;99.90
39099;DHT22;24844;52.380;7.018;2023-09-19T00:17:01;15.70;99.90
39099;DHT22;24844;52.380;7.018;2023-09-19T00:19:36;15.70;99.90
39099;DHT22;24844;52.380;7.018;2023-09-19T00:22:03;15.70;99.90
39099;DHT22;24844;52.380;7.018;2023-09-19T00:24:29;15.80;99.90
39099;DHT22;24844;52.380;7.018;2023-09-19T00:26:55;15.50;99.90
39099;DHT22;24844;52.380;7.018;2023-09-19T00:29:21;15.40;99.90
39099;DHT22;24844;52.380;7.018;2023-09-19T00:31:48;15.40;99.90
39099;DHT22;24844;52.380;7.018;2023-09-19T00:34:15;15.40;99.90
39099;DHT22;24844;52.380;7.018;2023-09-19T00:36:42;15.10;99.90
39099;DHT22;24844;52.380;7.018;2023-09-19T00:39:08;15.40;99.90
39099;DHT22;24844;52.380;7.018;2023-09-19T00:41:34;15.10;99.90
39099;DHT22;24844;52.380;7.018;2023-09-19T00:44:03;15.00;99.90
39099;DHT22;24844;52.380;7.018;2023-09-19T00:46:31;15.00;99.90
39099;DHT22;24844;52.380;7.018;2023-09-19T00:48:58;14.90;99.90
39099;DHT22;24844;52.380;7.018;2023-09-19T00:51:25;14.90;99.90
39099;DHT22;24844;52.380;7.018;2023-09-19T00:53:52;15.20;99.90
39099;DHT22;24844;52.380;7.018;2023-09-19T00:56:18;15.00;99.90
39099;DHT22;24844;52.380;7.018;2023-09-19T00:58:44;14.90;99.90
39099;DHT22;24844;52.380;7.018;2023-09-19T01:01:12;14.80;99.90
39099;DHT22;24844;52.380;7.018;2023-09-19T01:03:40;15.20;99.90
39099;DHT22;24844;52.380;7.018;2023-09-19T01:06:06;14.90;99.90
39099;DHT22;24844;52.380;7.018;2023-09-19T01:08:33;14.80;99.90
39099;DHT22;24844;52.380;7.018;2023-09-19T01:11:07;14.90;99.90
39099;DHT22;24844;52.380;7.018;2023-09-19T01:13:53;15.20;99.90
39099;DHT22;24844;52.380;7.018;2023-09-19T01:16:36;15.20;99.90
39099;DHT22;24844;52.380;7.018;2023-09-19T01:22:11;15.00;99.90
39099;DHT22;24844;52.380;7.018;2023-09-19T01:30:33;14.90;99.90
39099;DHT22;24844;52.380;7.018;2023-09-19T01:33:01;14.90;99.90
39099;DHT22;24844;52.380;7.018;2023-09-19T01:35:29;15.00;99.90
39099;DHT22;24844;52.380;7.018;2023-09-19T01:37:55;15.00;99.90
39099;DHT22;24844;52.380;7.018;2023-09-19T01:40:21;14.90;99.90
39099;DHT22;24844;52.380;7.018;2023-09-19T01:43:13;15.00;99.90
39099;DHT22;24844;52.380;7.018;2023-09-19T01:45:59;15.10;99.90
39099;DHT22;24844;52.380;7.018;2023-09-19T01:48:38;14.90;99.90
39099;DHT22;24844;52.380;7.018;2023-09-19T01:51:09;14.80;99.90
39099;DHT22;24844;52.380;7.018;2023-09-19T01:56:39;14.80;99.90
39099;DHT22;24844;52.380;7.018;2023-09-19T01:59:23;14.80;99.90
39099;DHT22;24844;52.380;7.018;2023-09-19T02:01:52;14.90;99.90
39099;DHT22;24844;52.380;7.018;2023-09-19T02:04:18;15.00;99.90
39099;DHT22;24844;52.380;7.018;2023-09-19T02:06:44;14.90;99.90
39099;DHT22;24844;52.380;7.018;2023-09-19T02:09:13;15.00;99.90
39099;DHT22;24844;52.380;7.018;2023-09-19T02:11:39;14.80;99.90
39099;DHT22;24844;52.380;7.018;2023-09-19T02:14:06;14.80;99.90
39099;DHT22;24844;52.380;7.018;2023-09-19T02:16:34;14.70;99.90
39099;DHT22;24844;52.380;7.018;2023-09-19T02:18:59;14.80;99.90
39099;DHT22;24844;52.380;7.018;2023-09-19T02:21:25;15.00;99.90
39099;DHT22;24844;52.380;7.018;2023-09-19T02:23:55;14.90;99.90
39099;DHT22;24844;52.380;7.018;2023-09-19T02:26:20;14.90;99.90
39099;DHT22;24844;52.380;7.018;2023-09-19T02:28:47;14.90;99.90
39099;DHT22;24844;52.380;7.018;2023-09-19T02:31:12;15.10;99.90
39099;DHT22;24844;52.380;7.018;2023-09-19T02:33:38;15.00;99.90
39099;DHT22;24844;52.380;7.018;2023-09-19T02:36:04;15.10;99.90
39099;DHT22;24844;52.380;7.018;2023-09-19T02:38:29;15.20;99.90
39099;DHT22;24844;52.380;7.018;2023-09-19T02:40:55;15.10;99.90
39099;DHT22;24844;52.380;7.018;2023-09-19T02:43:22;15.10;99.90
39099;DHT22;24844;52.380;7.018;2023-09-19T02:45:48;15.10;99.90
39099;DHT22;24844;52.380;7.018;2023-09-19T02:48:18;15.10;99.90
39099;DHT22;24844;52.380;7.018;2023-09-19T02:50:44;15.10;99.90
39099;DHT22;24844;52.380;7.018;2023-09-19T02:53:09;15.10;99.90
39099;DHT22;24844;52.380;7.018;2023-09-19T02:55:38;15.20;99.90
39099;DHT22;24844;52.380;7.018;2023-09-19T02:58:06;15.20;99.90
39099;DHT22;24844;52.380;7.018;2023-09-19T03:00:33;15.00;99.90
39099;DHT22;24844;52.380;7.018;2023-09-19T03:03:02;15.10;99.90
39099;DHT22;24844;52.380;7.018;2023-09-19T03:05:28;15.20;99.90
39099;DHT22;24844;52.380;7.018;2023-09-19T03:07:56;15.30;99.90
39099;DHT22;24844;52.380;7.018;2023-09-19T03:10:22;15.30;99.90
39099;DHT22;24844;52.380;7.018;2023-09-19T03:12:50;15.30;99.90
39099;DHT22;24844;52.380;7.018;2023-09-19T03:15:16;15.40;99.90
39099;DHT22;24844;52.380;7.018;2023-09-19T03:17:47;15.40;99.90
39099;DHT22;24844;52.380;7.018;2023-09-19T03:20:13;15.40;99.90
39099;DHT22;24844;52.380;7.018;2023-09-19T03:22:43;15.40;99.90
39099;DHT22;24844;52.380;7.018;2023-09-19T03:25:08;15.40;99.90
39099;DHT22;24844;52.380;7.018;2023-09-19T03:27:35;15.40;99.90
39099;DHT22;24844;52.380;7.018;2023-09-19T03:30:00;15.20;99.90
39099;DHT22;24844;52.380;7.018;2023-09-19T03:32:26;15.40;99.90
39099;DHT22;24844;52.380;7.018;2023-09-19T03:34:52;15.50;99.90
39099;DHT22;24844;52.380;7.018;2023-09-19T03:37:17;15.40;99.90
39099;DHT22;24844;52.380;7.018;2023-09-19T03:39:43;15.30;99.90
39099;DHT22;24844;52.380;7.018;2023-09-19T03:42:09;15.40;99.90
39099;DHT22;24844;52.380;7.018;2023-09-19T03:44:35;15.40;99.90
39099;DHT22;24844;52.380;7.018;2023-09-19T03:47:00;15.20;99.90
39099;DHT22;24844;52.380;7.018;2023-09-19T03:49:26;15.40;99.90
39099;DHT22;24844;52.380;7.018;2023-09-19T03:51:51;15.40;99.90
39099;DHT22;24844;52.380;7.018;2023-09-19T03:54:17;15.40;99.90
39099;DHT22;24844;52.380;7.018;2023-09-19T03:56:45;15.30;99.90
39099;DHT22;24844;52.380;7.018;2023-09-19T03:59:11;15.10;99.90
39099;DHT22;24844;52.380;7.018;2023-09-19T04:01:37;15.10;99.90
39099;DHT22;24844;52.380;7.018;2023-09-19T04:04:03;15.30;99.90
39099;DHT22;24844;52.380;7.018;2023-09-19T04:06:36;15.10;99.90
39099;DHT22;24844;52.380;7.018;2023-09-19T04:09:03;15.30;99.90
39099;DHT22;24844;52.380;7.018;2023-09-19T04:11:32;15.10;99.90
39099;DHT22;24844;52.380;7.018;2023-09-19T04:13:58;15.00;99.90
39099;DHT22;24844;52.380;7.018;2023-09-19T04:16:24;14.90;99.90
39099;DHT22;24844;52.380;7.018;2023-09-19T04:18:49;14.90;99.90
39099;DHT22;24844;52.380;7.018;2023-09-19T04:21:15;14.80;99.90
39099;DHT22;24844;52.380;7.018;2023-09-19T04:23:41;15.00;99.90
39099;DHT22;24844;52.380;7.018;2023-09-19T04:26:06;15.00;99.90
39099;DHT22;24844;52.380;7.018;2023-09-19T04:28:33;14.70;99.90
39099;DHT22;24844;52.380;7.018;2023-09-19T04:31:02;14.80;99.90
39099;DHT22;24844;52.380;7.018;2023-09-19T04:33:28;14.60;99.90
39099;DHT22;24844;52.380;7.018;2023-09-19T04:35:53;14.60;99.90
39099;DHT22;24844;52.380;7.018;2023-09-19T04:38:20;14.80;99.90
39099;DHT22;24844;52.380;7.018;2023-09-19T04:40:46;14.60;99.90
39099;DHT22;24844;52.380;7.018;2023-09-19T04:43:11;14.70;99.90
39099;DHT22;24844;52.380;7.018;2023-09-19T04:45:38;14.60;99.90
39099;DHT22;24844;52.380;7.018;2023-09-19T04:48:05;14.50;99.90
39099;DHT22;24844;52.380;7.018;2023-09-19T04:50:32;14.50;99.90
39099;DHT22;24844;52.380;7.018;2023-09-19T04:52:59;14.50;99.90
39099;DHT22;24844;52.380;7.018;2023-09-19T04:55:26;14.40;99.90
39099;DHT22;24844;52.380;7.018;2023-09-19T04:57:52;14.50;99.90
39099;DHT22;24844;52.380;7.018;2023-09-19T05:00:20;14.40;99.90
39099;DHT22;24844;52.380;7.018;2023-09-19T05:02:50;14.40;99.90
39099;DHT22;24844;52.380;7.018;2023-09-19T05:05:17;14.50;99.90
39099;DHT22;24844;52.380;7.018;2023-09-19T05:07:43;14.30;99.90
39099;DHT22;24844;52.380;7.018;2023-09-19T05:10:12;14.40;99.90
39099;DHT22;24844;52.380;7.018;2023-09-19T05:12:38;14.40;99.90
39099;DHT22;24844;52.380;7.018;2023-09-19T05:15:04;14.20;99.90
39099;DHT22;24844;52.380;7.018;2023-09-19T05:17:32;14.30;99.90
39099;DHT22;24844;52.380;7.018;2023-09-19T05:19:58;14.50;99.90
39099;DHT22;24844;52.380;7.018;2023-09-19T05:22:26;14.40;99.90
39099;DHT22;24844;52.380;7.018;2023-09-19T05:24:52;14.50;99.90
39099;DHT22;24844;52.380;7.018;2023-09-19T05:27:19;14.40;99.90
39099;DHT22;24844;52.380;7.018;2023-09-19T05:29:46;14.60;99.90
39099;DHT22;24844;52.380;7.018;2023-09-19T05:32:12;14.70;99.90
39099;DHT22;24844;52.380;7.018;2023-09-19T05:34:38;14.60;99.90
39099;DHT22;24844;52.380;7.018;2023-09-19T05:37:04;14.60;99.90
39099;DHT22;24844;52.380;7.018;2023-09-19T05:39:33;14.50;99.90
39099;DHT22;24844;52.380;7.018;2023-09-19T05:41:59;14.50;99.90
39099;DHT22;24844;52.380;7.018;2023-09-19T05:44:26;14.60;99.90
39099;DHT22;24844;52.380;7.018;2023-09-19T05:46:51;14.40;99.90
39099;DHT22;24844;52.380;7.018;2023-09-19T05:49:17;14.50;99.90
39099;DHT22;24844;52.380;7.018;2023-09-19T05:51:43;14.60;99.90
39099;DHT22;24844;52.380;7.018;2023-09-19T05:54:09;14.60;99.90
39099;DHT22;24844;52.380;7.018;2023-09-19T05:56:36;14.70;99.90
39099;DHT22;24844;52.380;7.018;2023-09-19T05:59:01;14.80;99.90
39099;DHT22;24844;52.380;7.018;2023-09-19T06:01:29;14.70;99.90
39099;DHT22;24844;52.380;7.018;2023-09-19T06:03:56;14.60;99.90
39099;DHT22;24844;52.380;7.018;2023-09-19T06:06:21;14.60;99.90
39099;DHT22;24844;52.380;7.018;2023-09-19T06:08:49;14.60;99.90
39099;DHT22;24844;52.380;7.018;2023-09-19T06:11:16;14.80;99.90
39099;DHT22;24844;52.380;7.018;2023-09-19T06:13:41;14.70;99.90
39099;DHT22;24844;52.380;7.018;2023-09-19T06:16:07;14.70;99.90
39099;DHT22;24844;52.380;7.018;2023-09-19T06:18:32;15.00;99.90
39099;DHT22;24844;52.380;7.018;2023-09-19T06:20:59;15.00;99.90
39099;DHT22;24844;52.380;7.018;2023-09-19T06:23:26;15.30;99.90
39099;DHT22;24844;52.380;7.018;2023-09-19T06:25:54;15.30;99.90
39099;DHT22;24844;52.380;7.018;2023-09-19T06:28:20;15.20;99.90
39099;DHT22;24844;52.380;7.018;2023-09-19T06:30:50;15.50;99.90
39099;DHT22;24844;52.380;7.018;2023-09-19T06:33:15;15.50;99.90
39099;DHT22;24844;52.380;7.018;2023-09-19T06:35:42;15.60;99.90
39099;DHT22;24844;52.380;7.018;2023-09-19T06:38:10;15.60;99.90
39099;DHT22;24844;52.380;7.018;2023-09-19T06:40:38;15.50;99.90
39099;DHT22;24844;52.380;7.018;2023-09-19T06:43:04;15.70;99.90
39099;DHT22;24844;52.380;7.018;2023-09-19T06:45:30;15.80;99.90
39099;DHT22;24844;52.380;7.018;2023-09-19T06:47:57;15.90;99.90
39099;DHT22;24844;52.380;7.018;2023-09-19T06:50:23;15.50;99.90
39099;DHT22;24844;52.380;7.018;2023-09-19T06:52:51;15.40;99.90
39099;DHT22;24844;52.380;7.018;2023-09-19T06:55:18;15.40;99.90
39099;DHT22;24844;52.380;7.018;2023-09-19T06:57:45;15.60;99.90
39099;DHT22;24844;52.380;7.018;2023-09-19T07:00:12;15.40;99.90
39099;DHT22;24844;52.380;7.018;2023-09-19T07:02:44;15.30;99.90
39099;DHT22;24844;52.380;7.018;2023-09-19T07:05:10;15.40;99.90
39099;DHT22;24844;52.380;7.018;2023-09-19T07:07:35;15.60;99.90
39099;DHT22;24844;52.380;7.018;2023-09-19T07:10:04;15.80;99.90
39099;DHT22;24844;52.380;7.018;2023-09-19T07:12:31;15.90;99.90
39099;DHT22;24844;52.380;7.018;2023-09-19T07:14:58;15.70;99.90
39099;DHT22;24844;52.380;7.018;2023-09-19T07:17:23;15.80;99.90
39099;DHT22;24844;52.380;7.018;2023-09-19T07:19:49;16.00;99.90
39099;DHT22;24844;52.380;7.018;2023-09-19T07:22:16;16.00;99.90
39099;DHT22;24844;52.380;7.018;2023-09-19T07:24:41;16.50;99.90
39099;DHT22;24844;52.380;7.018;2023-09-19T07:27:07;16.50;99.90
39099;DHT22;24844;52.380;7.018;2023-09-19T07:29:32;16.30;99.90
39099;DHT22;24844;52.380;7.018;2023-09-19T07:31:58;16.50;99.90
39099;DHT22;24844;52.380;7.018;2023-09-19T07:34:23;16.60;99.90
39099;DHT22;24844;52.380;7.018;2023-09-19T07:36:49;16.60;99.90
39099;DHT22;24844;52.380;7.018;2023-09-19T07:39:15;16.60;99.90
39099;DHT22;24844;52.380;7.018;2023-09-19T07:41:41;16.60;99.90
39099;DHT22;24844;52.380;7.018;2023-09-19T07:44:07;16.60;99.90
39099;DHT22;24844;52.380;7.018;2023-09-19T07:46:34;16.60;99.90
39099;DHT22;24844;52.380;7.018;2023-09-19T07:48:59;17.20;99.90
39099;DHT22;24844;52.380;7.018;2023-09-19T07:51:25;17.40;99.90
39099;DHT22;24844;52.380;7.018;2023-09-19T07:53:52;17.40;99.90
39099;DHT22;24844;52.380;7.018;2023-09-19T07:56:18;17.70;99.90
39099;DHT22;24844;52.380;7.018;2023-09-19T07:58:45;17.80;99.90
39099;DHT22;24844;52.380;7.018;2023-09-19T08:01:11;17.80;99.90
39099;DHT22;24844;52.380;7.018;2023-09-19T08:03:39;18.00;99.90
39099;DHT22;24844;52.380;7.018;2023-09-19T08:06:06;18.40;99.90
39099;DHT22;24844;52.380;7.018;2023-09-19T08:08:33;18.50;99.90
39099;DHT22;24844;52.380;7.018;2023-09-19T08:11:06;19.20;99.90
39099;DHT22;24844;52.380;7.018;2023-09-19T08:13:41;19.40;99.90
39099;DHT22;24844;52.380;7.018;2023-09-19T08:16:12;19.60;99.90
39099;DHT22;24844;52.380;7.018;2023-09-19T08:18:38;19.70;99.90
39099;DHT22;24844;52.380;7.018;2023-09-19T08:21:07;19.80;99.90
39099;DHT22;24844;52.380;7.018;2023-09-19T08:23:39;19.70;99.90
39099;DHT22;24844;52.380;7.018;2023-09-19T08:26:05;19.40;99.90
39099;DHT22;24844;52.380;7.018;2023-09-19T08:28:37;19.30;99.90
39099;DHT22;24844;52.380;7.018;2023-09-19T08:31:06;19.30;99.90
39099;DHT22;24844;52.380;7.018;2023-09-19T08:33:33;19.20;99.90
39099;DHT22;24844;52.380;7.018;2023-09-19T08:35:59;19.90;99.90
39099;DHT22;24844;52.380;7.018;2023-09-19T08:38:25;20.20;99.90
39099;DHT22;24844;52.380;7.018;2023-09-19T08:40:57;20.20;99.90
39099;DHT22;24844;52.380;7.018;2023-09-19T08:43:25;20.20;99.90
39099;DHT22;24844;52.380;7.018;2023-09-19T08:48:31;20.50;99.90
39099;DHT22;24844;52.380;7.018;2023-09-19T08:51:03;20.60;99.90
39099;DHT22;24844;52.380;7.018;2023-09-19T08:56:03;20.80;99.90
39099;DHT22;24844;52.380;7.018;2023-09-19T08:58:39;21.10;99.90
39099;DHT22;24844;52.380;7.018;2023-09-19T09:01:06;20.90;99.90
39099;DHT22;24844;52.380;7.018;2023-09-19T09:03:33;21.20;99.90
39099;DHT22;24844;52.380;7.018;2023-09-19T09:06:00;21.60;99.90
39099;DHT22;24844;52.380;7.018;2023-09-19T09:08:27;22.10;99.90
39099;DHT22;24844;52.380;7.018;2023-09-19T09:10:53;22.20;99.90
39099;DHT22;24844;52.380;7.018;2023-09-19T09:13:19;22.80;99.90
39099;DHT22;24844;52.380;7.018;2023-09-19T09:15:46;23.60;99.90
39099;DHT22;24844;52.380;7.018;2023-09-19T09:18:12;23.70;99.90
39099;DHT22;24844;52.380;7.018;2023-09-19T09:20:38;24.40;99.90
39099;DHT22;24844;52.380;7.018;2023-09-19T09:23:04;24.30;99.90
39099;DHT22;24844;52.380;7.018;2023-09-19T09:25:49;24.70;99.90
39099;DHT22;24844;52.380;7.018;2023-09-19T09:28:23;25.30;99.90
39099;DHT22;24844;52.380;7.018;2023-09-19T09:30:49;24.50;99.90
39099;DHT22;24844;52.380;7.018;2023-09-19T09:33:16;24.90;99.90
39099;DHT22;24844;52.380;7.018;2023-09-19T09:38:23;24.30;99.80
39099;DHT22;24844;52.380;7.018;2023-09-19T09:40:54;24.50;99.70
39099;DHT22;24844;52.380;7.018;2023-09-19T09:43:40;24.10;99.90
39099;DHT22;24844;52.380;7.018;2023-09-19T09:46:10;23.50;99.90
39099;DHT22;24844;52.380;7.018;2023-09-19T09:49:03;23.40;99.90
39099;DHT22;24844;52.380;7.018;2023-09-19T09:54:26;22.50;99.90
39099;DHT22;24844;52.380;7.018;2023-09-19T09:57:09;22.50;99.90
39099;DHT22;24844;52.380;7.018;2023-09-19T09:59:56;22.50;99.90
39099;DHT22;24844;52.380;7.018;2023-09-19T10:02:37;22.10;99.90
39099;DHT22;24844;52.380;7.018;2023-09-19T10:05:15;22.10;99.90
39099;DHT22;24844;52.380;7.018;2023-09-19T10:08:12;21.80;99.90
39099;DHT22;24844;52.380;7.018;2023-09-19T10:10:39;21.60;99.90
39099;DHT22;24844;52.380;7.018;2023-09-19T10:13:09;22.30;99.90
39099;DHT22;24844;52.380;7.018;2023-09-19T10:15:39;22.40;99.90
39099;DHT22;24844;52.380;7.018;2023-09-19T10:18:11;22.30;99.90
39099;DHT22;24844;52.380;7.018;2023-09-19T10:20:43;22.60;99.90
39099;DHT22;24844;52.380;7.018;2023-09-19T10:23:11;22.80;99.90
39099;DHT22;24844;52.380;7.018;2023-09-19T10:25:43;22.90;99.90
39099;DHT22;24844;52.380;7.018;2023-09-19T10:28:14;22.30;99.90
39099;DHT22;24844;52.380;7.018;2023-09-19T10:30:44;22.10;99.90
39099;DHT22;24844;52.380;7.018;2023-09-19T10:33:13;22.80;99.90
39099;DHT22;24844;52.380;7.018;2023-09-19T10:35:44;23.20;99.90
39099;DHT22;24844;52.380;7.018;2023-09-19T10:38:11;23.80;99.90
39099;DHT22;24844;52.380;7.018;2023-09-19T10:40:38;24.50;99.90
39099;DHT22;24844;52.380;7.018;2023-09-19T10:43:17;24.70;99.80
39099;DHT22;24844;52.380;7.018;2023-09-19T10:45:44;24.80;98.70
39099;DHT22;24844;52.380;7.018;2023-09-19T10:48:10;24.20;98.30
39099;DHT22;24844;52.380;7.018;2023-09-19T10:50:44;22.70;99.90
39099;DHT22;24844;52.380;7.018;2023-09-19T10:53:11;22.20;99.90
39099;DHT22;24844;52.380;7.018;2023-09-19T10:55:38;21.60;99.90
39099;DHT22;24844;52.380;7.018;2023-09-19T10:58:05;21.80;99.90
39099;DHT22;24844;52.380;7.018;2023-09-19T11:00:54;22.10;99.90
39099;DHT22;24844;52.380;7.018;2023-09-19T11:03:22;21.90;99.90
39099;DHT22;24844;52.380;7.018;2023-09-19T11:06:05;22.20;99.90
39099;DHT22;24844;52.380;7.018;2023-09-19T11:09:00;21.60;99.90
39099;DHT22;24844;52.380;7.018;2023-09-19T11:11:46;21.30;99.90
39099;DHT22;24844;52.380;7.018;2023-09-19T11:30:31;20.50;99.90
39099;DHT22;24844;52.380;7.018;2023-09-19T11:46:21;20.70;99.90
39099;DHT22;24844;52.380;7.018;2023-09-19T11:48:51;20.80;99.90
39099;DHT22;24844;52.380;7.018;2023-09-19T11:51:18;20.80;99.90
39099;DHT22;24844;52.380;7.018;2023-09-19T11:53:46;20.80;99.90
39099;DHT22;24844;52.380;7.018;2023-09-19T11:56:19;20.90;99.90
39099;DHT22;24844;52.380;7.018;2023-09-19T11:58:46;20.60;99.90
39099;DHT22;24844;52.380;7.018;2023-09-19T12:01:21;20.50;99.90
39099;DHT22;24844;52.380;7.018;2023-09-19T12:03:49;20.50;99.90
39099;DHT22;24844;52.380;7.018;2023-09-19T12:06:18;20.30;99.90
39099;DHT22;24844;52.380;7.018;2023-09-19T12:08:44;20.50;99.90
39099;DHT22;24844;52.380;7.018;2023-09-19T12:11:13;20.60;99.90
39099;DHT22;24844;52.380;7.018;2023-09-19T12:13:44;20.50;99.90
39099;DHT22;24844;52.380;7.018;2023-09-19T12:18:41;20.70;99.90
39099;DHT22;24844;52.380;7.018;2023-09-19T12:21:28;20.70;99.90
39099;DHT22;24844;52.380;7.018;2023-09-19T12:24:12;20.80;99.90
39099;DHT22;24844;52.380;7.018;2023-09-19T12:26:43;20.70;99.90
39099;DHT22;24844;52.380;7.018;2023-09-19T12:29:16;20.50;99.90
39099;DHT22;24844;52.380;7.018;2023-09-19T12:31:57;20.80;99.90
39099;DHT22;24844;52.380;7.018;2023-09-19T12:34:30;20.80;99.90
39099;DHT22;24844;52.380;7.018;2023-09-19T12:37:12;20.60;99.90
39099;DHT22;24844;52.380;7.018;2023-09-19T12:39:42;20.50;99.90
39099;DHT22;24844;52.380;7.018;2023-09-19T12:42:12;20.70;99.90
39099;DHT22;24844;52.380;7.018;2023-09-19T12:44:42;21.00;99.90
39099;DHT22;24844;52.380;7.018;2023-09-19T12:47:13;21.00;99.90
39099;DHT22;24844;52.380;7.018;2023-09-19T12:50:13;21.10;99.90
39099;DHT22;24844;52.380;7.018;2023-09-19T12:52:49;21.10;99.90
39099;DHT22;24844;52.380;7.018;2023-09-19T12:55:30;21.10;99.90
39099;DHT22;24844;52.380;7.018;2023-09-19T12:58:13;21.50;99.90
39099;DHT22;24844;52.380;7.018;2023-09-19T13:00:44;21.60;99.90
39099;DHT22;24844;52.380;7.018;2023-09-19T13:05:55;21.40;99.90
39099;DHT22;24844;52.380;7.018;2023-09-19T13:08:28;20.90;99.90
39099;DHT22;24844;52.380;7.018;2023-09-19T13:11:12;20.70;99.90
39099;DHT22;24844;52.380;7.018;2023-09-19T13:14:15;20.70;99.90
39099;DHT22;24844;52.380;7.018;2023-09-19T13:17:02;20.80;99.90
39099;DHT22;24844;52.380;7.018;2023-09-19T13:19:48;21.00;99.90
39099;DHT22;24844;52.380;7.018;2023-09-19T13:22:40;21.20;99.90
39099;DHT22;24844;52.380;7.018;2023-09-19T13:25:18;21.30;99.90
39099;DHT22;24844;52.380;7.018;2023-09-19T13:27:45;21.40;99.90
39099;DHT22;24844;52.380;7.018;2023-09-19T13:30:12;20.90;99.90
39099;DHT22;24844;52.380;7.018;2023-09-19T13:32:38;20.70;99.90
39099;DHT22;24844;52.380;7.018;2023-09-19T13:35:06;20.90;99.90
39099;DHT22;24844;52.380;7.018;2023-09-19T13:37:34;20.90;99.90
39099;DHT22;24844;52.380;7.018;2023-09-19T13:40:07;20.60;99.90
39099;DHT22;24844;52.380;7.018;2023-09-19T13:42:33;20.70;99.90
39099;DHT22;24844;52.380;7.018;2023-09-19T13:44:59;20.90;99.90
39099;DHT22;24844;52.380;7.018;2023-09-19T13:47:24;21.00;99.90
39099;DHT22;24844;52.380;7.018;2023-09-19T13:49:52;20.90;99.90
39099;DHT22;24844;52.380;7.018;2023-09-19T13:52:21;20.40;99.90
39099;DHT22;24844;52.380;7.018;2023-09-19T13:54:49;20.20;99.90
39099;DHT22;24844;52.380;7.018;2023-09-19T13:57:16;20.20;99.90
39099;DHT22;24844;52.380;7.018;2023-09-19T13:59:42;20.10;99.90
39099;DHT22;24844;52.380;7.018;2023-09-19T14:02:08;19.90;99.90
39099;DHT22;24844;52.380;7.018;2023-09-19T14:04:33;19.80;99.90
39099;DHT22;24844;52.380;7.018;2023-09-19T14:07:02;19.60;99.90
39099;DHT22;24844;52.380;7.018;2023-09-19T14:09:29;20.00;99.90
39099;DHT22;24844;52.380;7.018;2023-09-19T14:11:54;19.90;99.90
39099;DHT22;24844;52.380;7.018;2023-09-19T14:14:20;19.70;99.90
39099;DHT22;24844;52.380;7.018;2023-09-19T14:16:49;19.90;99.90
39099;DHT22;24844;52.380;7.018;2023-09-19T14:19:15;19.90;99.90
39099;DHT22;24844;52.380;7.018;2023-09-19T14:21:42;19.80;99.90
39099;DHT22;24844;52.380;7.018;2023-09-19T14:24:08;20.10;99.90
39099;DHT22;24844;52.380;7.018;2023-09-19T14:26:38;20.10;99.90
39099;DHT22;24844;52.380;7.018;2023-09-19T14:29:03;20.10;99.90
39099;DHT22;24844;52.380;7.018;2023-09-19T14:31:29;20.10;99.90
39099;DHT22;24844;52.380;7.018;2023-09-19T14:33:55;20.00;99.90
39099;DHT22;24844;52.380;7.018;2023-09-19T14:36:22;19.90;99.90
39099;DHT22;24844;52.380;7.018;2023-09-19T14:38:47;20.00;99.90
39099;DHT22;24844;52.380;7.018;2023-09-19T14:41:13;20.20;99.90
39099;DHT22;24844;52.380;7.018;2023-09-19T14:43:38;20.00;99.90
39099;DHT22;24844;52.380;7.018;2023-09-19T14:46:05;19.90;99.90
39099;DHT22;24844;52.380;7.018;2023-09-19T14:48:33;20.00;99.90
39099;DHT22;24844;52.380;7.018;2023-09-19T14:51:03;19.90;99.90
39099;DHT22;24844;52.380;7.018;2023-09-19T14:53:29;20.10;99.90
39099;DHT22;24844;52.380;7.018;2023-09-19T14:55:55;20.00;99.90
39099;DHT22;24844;52.380;7.018;2023-09-19T14:58:21;19.90;99.90
39099;DHT22;24844;52.380;7.018;2023-09-19T15:00:47;20.00;99.90
39099;DHT22;24844;52.380;7.018;2023-09-19T15:03:13;20.40;99.90
39099;DHT22;24844;52.380;7.018;2023-09-19T15:05:41;20.60;99.90
39099;DHT22;24844;52.380;7.018;2023-09-19T15:08:07;20.70;99.90
39099;DHT22;24844;52.380;7.018;2023-09-19T15:10:32;20.50;99.90
39099;DHT22;24844;52.380;7.018;2023-09-19T15:12:58;20.40;99.90
39099;DHT22;24844;52.380;7.018;2023-09-19T15:15:23;20.40;99.90
39099;DHT22;24844;52.380;7.018;2023-09-19T15:17:49;20.60;99.90
39099;DHT22;24844;52.380;7.018;2023-09-19T15:20:14;20.40;99.90
39099;DHT22;24844;52.380;7.018;2023-09-19T15:22:40;20.60;99.90
39099;DHT22;24844;52.380;7.018;2023-09-19T15:25:07;20.50;99.90
39099;DHT22;24844;52.380;7.018;2023-09-19T15:27:32;20.50;99.90
39099;DHT22;24844;52.380;7.018;2023-09-19T15:30:01;20.40;99.90
39099;DHT22;24844;52.380;7.018;2023-09-19T15:32:28;20.60;99.90
39099;DHT22;24844;52.380;7.018;2023-09-19T15:34:53;20.30;99.90
39099;DHT22;24844;52.380;7.018;2023-09-19T15:37:19;20.30;99.90
39099;DHT22;24844;52.380;7.018;2023-09-19T15:39:45;20.20;99.90
39099;DHT22;24844;52.380;7.018;2023-09-19T15:42:11;20.10;99.90
39099;DHT22;24844;52.380;7.018;2023-09-19T15:44:37;20.00;99.90
39099;DHT22;24844;52.380;7.018;2023-09-19T15:47:06;20.00;99.90
39099;DHT22;24844;52.380;7.018;2023-09-19T15:49:31;19.90;99.90
39099;DHT22;24844;52.380;7.018;2023-09-19T15:51:57;20.00;99.90
39099;DHT22;24844;52.380;7.018;2023-09-19T15:54:25;20.30;99.90
39099;DHT22;24844;52.380;7.018;2023-09-19T15:56:51;20.10;99.90
39099;DHT22;24844;52.380;7.018;2023-09-19T15:59:17;20.10;99.90
39099;DHT22;24844;52.380;7.018;2023-09-19T16:01:43;20.00;99.90
39099;DHT22;24844;52.380;7.018;2023-09-19T16:04:09;20.00;99.90
39099;DHT22;24844;52.380;7.018;2023-09-19T16:06:36;20.20;99.90
39099;DHT22;24844;52.380;7.018;2023-09-19T16:09:03;20.00;99.90
39099;DHT22;24844;52.380;7.018;2023-09-19T16:11:32;20.00;99.90
39099;DHT22;24844;52.380;7.018;2023-09-19T16:13:58;20.10;99.90
39099;DHT22;24844;52.380;7.018;2023-09-19T16:16:26;19.90;99.90
39099;DHT22;24844;52.380;7.018;2023-09-19T16:18:57;20.00;99.90
39099;DHT22;24844;52.380;7.018;2023-09-19T16:21:25;19.80;99.90
39099;DHT22;24844;52.380;7.018;2023-09-19T16:23:56;19.70;99.90
39099;DHT22;24844;52.380;7.018;2023-09-19T16:26:22;19.90;99.90
39099;DHT22;24844;52.380;7.018;2023-09-19T16:28:50;19.60;99.90
39099;DHT22;24844;52.380;7.018;2023-09-19T16:31:16;19.70;99.90
39099;DHT22;24844;52.380;7.018;2023-09-19T16:33:44;19.60;99.90
39099;DHT22;24844;52.380;7.018;2023-09-19T16:36:11;19.70;99.90
39099;DHT22;24844;52.380;7.018;2023-09-19T16:38:37;19.60;99.90